Time;durP1;ratioP1;P1;durP2;ratioP2;P2;SDS_P1;SDS_P2;PMS_P1;PMS_P2;Temp;Humidity;BMP_temperature;BMP_pressure;BME280_temperature;BME280_humidity;BME280_pressure;Samples;Min_cycle;Max_cycle;Signal;HPM_P1;HPM_P2
2021/12/31 00:00:46;;;;;;;;;;;;;;;;;;5098498;28;19923;-28
2021/12/31 00:03:13;;;;;;;;;;;;;;;;;;5098567;28;19912;-29
2021/12/31 00:05:39;;;;;;;;;;;;;;;;;;5097410;28;20007;-28
2021/12/31 00:08:05;;;;;;;;;;;;;;;;;;5097999;28;19916;-29
2021/12/31 00:10:31;;;;;;;;;;;;;;;;;;5097388;28;20318;-28
2021/12/31 00:12:58;;;;;;;;;;;;;;;;;;5098603;28;19916;-28
2021/12/31 00:15:24;;;;;;;;;;;;;;;;;;5097164;28;19962;-28
2021/12/31 00:17:50;;;;;;;;;;;;;;;;;;5097173;28;19920;-27
2021/12/31 00:20:21;;;;;;;;;;;;;;;;;;5098364;28;19992;-32
2021/12/31 00:23:05;;;;;;;;;;;;;;;;;;5098038;28;20000;-27
2021/12/31 00:25:32;;;;;;;;;;;;;;;;;;5098021;28;20063;-28
2021/12/31 00:27:59;;;;;;;;;;;;;;;;;;5098001;28;19912;-28
2021/12/31 00:30:25;;;;;;;;;;;;;;;;;;5098218;28;20250;-29
2021/12/31 00:32:51;;;;;;;;;;;;;;;;;;5096858;28;19912;-33
2021/12/31 00:35:19;;;;;;;;;;;;;;;;;;5098127;28;20293;-36
2021/12/31 00:37:45;;;;;;;;;;;;;;;;;;5097776;28;19912;-28
2021/12/31 00:40:11;;;;;;;;;;;;;;;;;;5097785;28;20243;-30
2021/12/31 00:42:37;;;;;;;;;;;;;;;;;;5097617;28;19912;-32
2021/12/31 00:45:03;;;;;;;;;;;;;;;;;;5097685;28;19915;-30
2021/12/31 00:47:31;;;;;;;;;;;;;;;;;;5096684;28;19912;-32
2021/12/31 00:49:57;;;;;;;;;;;;;;;;;;5097830;28;19951;-27
2021/12/31 00:52:24;;;;;;;;;;;;;;;;;;5097536;28;19912;-30
2021/12/31 00:54:51;;;;;;;;;;;;;;;;;;5097517;28;19912;-31
2021/12/31 01:00:05;;;;;;;;;;;;;;;;;;5097502;28;20392;-31
2021/12/31 01:02:31;;;;;;;;;;;;;;;;;;5097310;28;19927;-27
2021/12/31 01:04:58;;;;;;;;;;;;;;;;;;5097340;28;19912;-33
2021/12/31 01:07:27;;;;;;;;;;;;;;;;;;5097382;28;19917;-30
2021/12/31 01:09:55;;;;;;;;;;;;;;;;;;5097192;28;19912;-31
2021/12/31 01:12:23;;;;;;;;;;;;;;;;;;5097129;28;20296;-30
2021/12/31 01:17:24;;;;;;;;;;;;;;;;;;5096836;28;20334;-29
2021/12/31 01:19:51;;;;;;;;;;;;;;;;;;5095965;28;19924;-32
2021/12/31 01:22:19;;;;;;;;;;;;;;;;;;5097185;28;19927;-28
2021/12/31 01:24:45;;;;;;;;;;;;;;;;;;5096860;28;19919;-28
2021/12/31 01:27:11;;;;;;;;;;;;;;;;;;5096840;28;19912;-29
2021/12/31 01:29:39;;;;;;;;;;;;;;;;;;5097041;28;19943;-30
2021/12/31 01:32:07;;;;;;;;;;;;;;;;;;5096647;28;19948;-27
2021/12/31 01:34:33;;;;;;;;;;;;;;;;;;5097321;28;19951;-30
2021/12/31 01:37:02;;;;;;;;;;;;;;;;;;5096552;28;19916;-33
2021/12/31 01:39:28;;;;;;;;;;;;;;;;;;5096597;28;19915;-32
2021/12/31 01:41:56;;;;;;;;;;;;;;;;;;5096787;28;19943;-35
2021/12/31 01:44:27;;;;;;;;;;;;;;;;;;5096501;28;20338;-28
2021/12/31 01:46:54;;;;;;;;;;;;;;;;;;5095473;28;20445;-29
2021/12/31 01:49:27;;;;;;;;;;;;;;;;;;5096728;28;20322;-30
2021/12/31 01:51:53;;;;;;;;;;;;;;;;;;5096307;28;19995;-30
2021/12/31 01:54:19;;;;;;;;;;;;;;;;;;5096359;28;19970;-29
2021/12/31 01:56:46;;;;;;;;;;;;;;;;;;5096508;28;19912;-30
2021/12/31 01:59:13;;;;;;;;;;;;;;;;;;5096244;28;19930;-28
2021/12/31 02:01:39;;;;;;;;;;;;;;;;;;5096250;28;19908;-31
2021/12/31 02:04:07;;;;;;;;;;;;;;;;;;5096103;28;20272;-29
2021/12/31 02:06:34;;;;;;;;;;;;;;;;;;5096095;28;19912;-27
2021/12/31 02:09:00;;;;;;;;;;;;;;;;;;5096087;28;20424;-30
2021/12/31 02:11:28;;;;;;;;;;;;;;;;;;5096054;28;20263;-30
2021/12/31 02:13:55;;;;;;;;;;;;;;;;;;5096154;28;19924;-30
2021/12/31 02:16:22;;;;;;;;;;;;;;;;;;5095326;28;19998;-29
2021/12/31 02:18:49;;;;;;;;;;;;;;;;;;5095890;28;19958;-29
2021/12/31 02:21:18;;;;;;;;;;;;;;;;;;5095426;28;19916;-33
2021/12/31 02:23:46;;;;;;;;;;;;;;;;;;5095639;28;19912;-33
2021/12/31 02:26:12;;;;;;;;;;;;;;;;;;5096038;28;19916;-26
2021/12/31 02:28:40;;;;;;;;;;;;;;;;;;5095605;28;19922;-31
2021/12/31 02:31:06;;;;;;;;;;;;;;;;;;5095949;28;19980;-33
2021/12/31 02:33:33;;;;;;;;;;;;;;;;;;5095575;28;20006;-35
2021/12/31 02:36:00;;;;;;;;;;;;;;;;;;5095523;28;20410;-33
2021/12/31 02:38:26;;;;;;;;;;;;;;;;;;5095853;28;19909;-29
2021/12/31 02:40:54;;;;;;;;;;;;;;;;;;5095511;28;19912;-31
2021/12/31 02:43:20;;;;;;;;;;;;;;;;;;5095303;28;19912;-30
2021/12/31 02:45:47;;;;;;;;;;;;;;;;;;5094787;28;20303;-32
2021/12/31 02:48:13;;;;;;;;;;;;;;;;;;5095351;28;19965;-32
2021/12/31 02:50:40;;;;;;;;;;;;;;;;;;5095290;28;20332;-28
2021/12/31 02:53:07;;;;;;;;;;;;;;;;;;5095543;28;20254;-30
2021/12/31 02:55:33;;;;;;;;;;;;;;;;;;5095106;28;19920;-32
2021/12/31 02:57:59;;;;;;;;;;;;;;;;;;5094171;28;20339;-35
2021/12/31 03:00:28;;;;;;;;;;;;;;;;;;5095183;28;19999;-29
2021/12/31 03:02:54;;;;;;;;;;;;;;;;;;5095051;28;19912;-34
2021/12/31 03:05:20;;;;;;;;;;;;;;;;;;5095176;28;19965;-30
2021/12/31 03:07:48;;;;;;;;;;;;;;;;;;5095065;28;20263;-29
2021/12/31 03:10:14;;;;;;;;;;;;;;;;;;5095109;28;20289;-28
2021/12/31 03:12:40;;;;;;;;;;;;;;;;;;5095090;28;20242;-28
2021/12/31 03:15:06;;;;;;;;;;;;;;;;;;5094938;28;19912;-28
2021/12/31 03:17:32;;;;;;;;;;;;;;;;;;5093755;28;20286;-35
2021/12/31 03:20:10;;;;;;;;;;;;;;;;;;5095023;28;19916;-29
2021/12/31 03:22:36;;;;;;;;;;;;;;;;;;5093991;28;19993;-30
2021/12/31 03:25:03;;;;;;;;;;;;;;;;;;5095209;28;19987;-30
2021/12/31 03:27:32;;;;;;;;;;;;;;;;;;5094882;28;19919;-32
2021/12/31 03:29:58;;;;;;;;;;;;;;;;;;5094929;28;19920;-29
2021/12/31 03:32:25;;;;;;;;;;;;;;;;;;5096526;28;19908;-30
2021/12/31 03:34:51;;;;;;;;;;;;;;;;;;5099040;28;20273;-32
2021/12/31 03:37:17;;;;;;;;;;;;;;;;;;5099290;28;20422;-28
2021/12/31 03:39:44;;;;;;;;;;;;;;;;;;5098978;28;19920;-31
2021/12/31 03:42:15;;;;;;;;;;;;;;;;;;5098859;28;19909;-30
2021/12/31 03:44:43;;;;;;;;;;;;;;;;;;5099117;28;20339;-29
2021/12/31 03:47:09;;;;;;;;;;;;;;;;;;5097745;28;19908;-30
2021/12/31 03:49:36;;;;;;;;;;;;;;;;;;5098785;28;19912;-27
2021/12/31 03:52:02;;;;;;;;;;;;;;;;;;5097661;28;19912;-26
2021/12/31 03:54:29;;;;;;;;;;;;;;;;;;5098658;28;20258;-30
2021/12/31 03:56:55;;;;;;;;;;;;;;;;;;5097597;28;20008;-30
2021/12/31 03:59:21;;;;;;;;;;;;;;;;;;5098867;28;19958;-30
2021/12/31 04:01:47;;;;;;;;;;;;;;;;;;5098672;28;19919;-28
2021/12/31 04:04:13;;;;;;;;;;;;;;;;;;5098864;28;19912;-30
2021/12/31 04:06:39;;;;;;;;;;;;;;;;;;5098473;28;19970;-33
2021/12/31 04:09:05;;;;;;;;;;;;;;;;;;5098683;28;20086;-28
2021/12/31 04:11:32;;;;;;;;;;;;;;;;;;5098405;28;19919;-30
2021/12/31 04:13:58;;;;;;;;;;;;;;;;;;5098297;28;20418;-30
2021/12/31 04:16:25;;;;;;;;;;;;;;;;;;5096959;28;19955;-30
2021/12/31 04:18:52;;;;;;;;;;;;;;;;;;5098187;28;20397;-30
2021/12/31 04:21:20;;;;;;;;;;;;;;;;;;5098409;28;20361;-28
2021/12/31 04:24:05;;;;;;;;;;;;;;;;;;5098070;28;19923;-29
2021/12/31 04:26:33;;;;;;;;;;;;;;;;;;5098000;28;19916;-30
2021/12/31 04:28:59;;;;;;;;;;;;;;;;;;5098025;28;20058;-30
2021/12/31 04:31:26;;;;;;;;;;;;;;;;;;5097994;28;19981;-26
2021/12/31 04:33:54;;;;;;;;;;;;;;;;;;5097874;28;19912;-27
2021/12/31 04:36:20;;;;;;;;;;;;;;;;;;5097812;28;19943;-31
2021/12/31 04:38:46;;;;;;;;;;;;;;;;;;5097750;28;20275;-31
2021/12/31 04:41:13;;;;;;;;;;;;;;;;;;5098056;28;20293;-31
2021/12/31 04:43:39;;;;;;;;;;;;;;;;;;5096929;28;19916;-31
2021/12/31 04:46:06;;;;;;;;;;;;;;;;;;5097557;28;19912;-32
2021/12/31 04:48:32;;;;;;;;;;;;;;;;;;5097540;28;19908;-30
2021/12/31 04:51:00;;;;;;;;;;;;;;;;;;5097311;28;19912;-30
2021/12/31 04:53:28;;;;;;;;;;;;;;;;;;5097252;28;19931;-27
2021/12/31 04:55:54;;;;;;;;;;;;;;;;;;5097414;28;19967;-29
2021/12/31 04:58:21;;;;;;;;;;;;;;;;;;5096123;28;19950;-36
2021/12/31 05:00:47;;;;;;;;;;;;;;;;;;5097250;28;19916;-35
2021/12/31 05:03:14;;;;;;;;;;;;;;;;;;5097023;28;20284;-27
2021/12/31 05:05:40;;;;;;;;;;;;;;;;;;5096749;28;20343;-28
2021/12/31 05:08:06;;;;;;;;;;;;;;;;;;5097122;28;19923;-33
2021/12/31 05:10:34;;;;;;;;;;;;;;;;;;5097024;28;19912;-28
2021/12/31 05:13:00;;;;;;;;;;;;;;;;;;5096541;28;20000;-29
2021/12/31 05:15:28;;;;;;;;;;;;;;;;;;5096652;28;20308;-30
2021/12/31 05:17:55;;;;;;;;;;;;;;;;;;5076566;28;20315;-30
2021/12/31 05:20:21;;;;;;;;;;;;;;;;;;5076197;28;20370;-33
2021/12/31 05:22:47;;;;;;;;;;;;;;;;;;5076315;28;20011;-33
2021/12/31 05:25:16;;;;;;;;;;;;;;;;;;5076805;28;19987;-32
2021/12/31 05:27:43;;;;;;;;;;;;;;;;;;5076119;28;20030;-33
2021/12/31 05:30:09;;;;;;;;;;;;;;;;;;5075206;28;20301;-30
2021/12/31 05:32:37;;;;;;;;;;;;;;;;;;5074945;28;19908;-30
2021/12/31 05:35:03;;;;;;;;;;;;;;;;;;5075080;28;19923;-32
2021/12/31 05:37:29;;;;;;;;;;;;;;;;;;5076178;28;19923;-31
2021/12/31 05:39:55;;;;;;;;;;;;;;;;;;5075998;28;19969;-34
2021/12/31 05:42:21;;;;;;;;;;;;;;;;;;5074909;28;19913;-30
2021/12/31 05:44:49;;;;;;;;;;;;;;;;;;5076118;28;19916;-32
2021/12/31 05:47:15;;;;;;;;;;;;;;;;;;5075808;28;19908;-32
2021/12/31 05:49:41;;;;;;;;;;;;;;;;;;5075935;28;19924;-29
2021/12/31 05:52:10;;;;;;;;;;;;;;;;;;5075700;28;19908;-34
2021/12/31 05:54:36;;;;;;;;;;;;;;;;;;5075635;28;19919;-29
2021/12/31 05:57:02;;;;;;;;;;;;;;;;;;5074808;28;20390;-29
2021/12/31 05:59:29;;;;;;;;;;;;;;;;;;5075494;28;19931;-32
2021/12/31 06:01:55;;;;;;;;;;;;;;;;;;5075686;28;20311;-30
2021/12/31 06:04:23;;;;;;;;;;;;;;;;;;5075299;28;19987;-28
2021/12/31 06:06:49;;;;;;;;;;;;;;;;;;5074190;28;19913;-30
2021/12/31 06:09:16;;;;;;;;;;;;;;;;;;5075348;28;19912;-31
2021/12/31 06:11:42;;;;;;;;;;;;;;;;;;5075484;28;19923;-29
2021/12/31 06:14:08;;;;;;;;;;;;;;;;;;5074212;28;19999;-31
2021/12/31 06:16:41;;;;;;;;;;;;;;;;;;5084315;28;19968;-34
2021/12/31 06:19:07;;;;;;;;;;;;;;;;;;5095547;28;19912;-31
2021/12/31 06:21:34;;;;;;;;;;;;;;;;;;5095290;28;19919;-29
2021/12/31 06:24:00;;;;;;;;;;;;;;;;;;5095157;28;19958;-31
2021/12/31 06:26:29;;;;;;;;;;;;;;;;;;5095303;28;20292;-31
2021/12/31 06:28:57;;;;;;;;;;;;;;;;;;5094959;28;20250;-34
2021/12/31 06:31:23;;;;;;;;;;;;;;;;;;5093678;28;20052;-31
2021/12/31 06:33:51;;;;;;;;;;;;;;;;;;5094980;28;20352;-31
2021/12/31 06:36:20;;;;;;;;;;;;;;;;;;5095169;28;20270;-32
2021/12/31 06:38:51;;;;;;;;;;;;;;;;;;5094747;28;19916;-33
2021/12/31 06:41:18;;;;;;;;;;;;;;;;;;5094656;28;19946;-30
2021/12/31 06:43:44;;;;;;;;;;;;;;;;;;5094293;28;19938;-36
2021/12/31 06:46:10;;;;;;;;;;;;;;;;;;5094426;28;19908;-36
2021/12/31 06:48:36;;;;;;;;;;;;;;;;;;5094671;28;19919;-35
2021/12/31 06:51:04;;;;;;;;;;;;;;;;;;5095055;28;20344;-30
2021/12/31 06:53:31;;;;;;;;;;;;;;;;;;5094491;28;19947;-28
2021/12/31 06:55:57;;;;;;;;;;;;;;;;;;5094728;28;19912;-31
2021/12/31 06:58:23;;;;;;;;;;;;;;;;;;5094525;28;20312;-31
2021/12/31 07:00:49;;;;;;;;;;;;;;;;;;5094512;28;19908;-27
2021/12/31 07:03:16;;;;;;;;;;;;;;;;;;5094343;28;20003;-30
2021/12/31 07:05:44;;;;;;;;;;;;;;;;;;5094339;28;19916;-31
2021/12/31 07:08:10;;;;;;;;;;;;;;;;;;5094151;28;19923;-30
2021/12/31 07:10:37;;;;;;;;;;;;;;;;;;5094400;28;19912;-29
2021/12/31 07:13:10;;;;;;;;;;;;;;;;;;5092860;28;20000;-29
2021/12/31 07:15:37;;;;;;;;;;;;;;;;;;5092371;28;19922;-33
2021/12/31 07:18:08;;;;;;;;;;;;;;;;;;5092451;28;20366;-32
2021/12/31 07:20:35;;;;;;;;;;;;;;;;;;5093787;28;19912;-29
2021/12/31 07:23:02;;;;;;;;;;;;;;;;;;5093862;28;19912;-35
2021/12/31 07:25:29;;;;;;;;;;;;;;;;;;5093768;28;19912;-33
2021/12/31 07:27:58;;;;;;;;;;;;;;;;;;5094153;28;20328;-33
2021/12/31 07:30:24;;;;;;;;;;;;;;;;;;5093710;28;19987;-29
2021/12/31 07:32:51;;;;;;;;;;;;;;;;;;5093683;28;19936;-31
2021/12/31 07:35:19;;;;;;;;;;;;;;;;;;5093483;28;19977;-30
2021/12/31 07:37:45;;;;;;;;;;;;;;;;;;5093900;28;19963;-32
2021/12/31 07:40:13;;;;;;;;;;;;;;;;;;5094243;28;19920;-29
2021/12/31 07:42:41;;;;;;;;;;;;;;;;;;5094291;28;19998;-32
2021/12/31 07:45:09;;;;;;;;;;;;;;;;;;5094009;28;20398;-30
2021/12/31 07:47:35;;;;;;;;;;;;;;;;;;5094569;28;20198;-29
2021/12/31 07:50:01;;;;;;;;;;;;;;;;;;5094294;28;19920;-31
2021/12/31 07:52:28;;;;;;;;;;;;;;;;;;5093893;28;20228;-29
2021/12/31 07:54:55;;;;;;;;;;;;;;;;;;5094305;28;20274;-32
2021/12/31 07:57:21;;;;;;;;;;;;;;;;;;5093954;28;19962;-30
2021/12/31 07:59:50;;;;;;;;;;;;;;;;;;5093762;28;19916;-33
2021/12/31 08:02:18;;;;;;;;;;;;;;;;;;5094284;28;20243;-30
2021/12/31 08:04:44;;;;;;;;;;;;;;;;;;5093882;28;19963;-30
2021/12/31 08:07:10;;;;;;;;;;;;;;;;;;5093789;28;19914;-29
2021/12/31 08:09:36;;;;;;;;;;;;;;;;;;5093825;28;19912;-28
2021/12/31 08:12:02;;;;;;;;;;;;;;;;;;5094036;28;21535;-29
2021/12/31 08:14:30;;;;;;;;;;;;;;;;;;5094052;28;19912;-30
2021/12/31 08:16:56;;;;;;;;;;;;;;;;;;5093345;28;19943;-33
2021/12/31 08:19:22;;;;;;;;;;;;;;;;;;5095076;28;19912;-33
2021/12/31 08:21:50;;;;;;;;;;;;;;;;;;5097625;28;19920;-33
2021/12/31 08:24:18;;;;;;;;;;;;;;;;;;5097814;28;20339;-32
2021/12/31 08:26:44;;;;;;;;;;;;;;;;;;5096486;28;19908;-31
2021/12/31 08:29:13;;;;;;;;;;;;;;;;;;5097612;28;19919;-30
2021/12/31 08:31:42;;;;;;;;;;;;;;;;;;5097567;28;19919;-29
2021/12/31 08:34:08;;;;;;;;;;;;;;;;;;5097689;28;20334;-28
2021/12/31 08:36:34;;;;;;;;;;;;;;;;;;5097187;28;20019;-29
2021/12/31 08:39:01;;;;;;;;;;;;;;;;;;5097716;28;20315;-29
2021/12/31 08:41:27;;;;;;;;;;;;;;;;;;5097318;28;20255;-33
2021/12/31 08:43:54;;;;;;;;;;;;;;;;;;5095909;28;19940;-28
2021/12/31 08:46:20;;;;;;;;;;;;;;;;;;5096066;28;20010;-27
2021/12/31 08:48:47;;;;;;;;;;;;;;;;;;5096941;28;19947;-30
2021/12/31 08:51:13;;;;;;;;;;;;;;;;;;5096873;28;19919;-29
2021/12/31 08:53:39;;;;;;;;;;;;;;;;;;5096646;28;20220;-28
2021/12/31 08:56:07;;;;;;;;;;;;;;;;;;5096565;28;19927;-29
2021/12/31 08:58:33;;;;;;;;;;;;;;;;;;5096908;28;20013;-27
2021/12/31 09:00:59;;;;;;;;;;;;;;;;;;5096766;28;19913;-28
2021/12/31 09:03:29;;;;;;;;;;;;;;;;;;5096732;28;19912;-31
2021/12/31 09:05:55;;;;;;;;;;;;;;;;;;5096999;28;19912;-31
2021/12/31 09:08:23;;;;;;;;;;;;;;;;;;5096942;28;19919;-31
2021/12/31 09:10:50;;;;;;;;;;;;;;;;;;5096624;28;20355;-29
2021/12/31 09:13:16;;;;;;;;;;;;;;;;;;5096412;28;19995;-27
2021/12/31 09:15:42;;;;;;;;;;;;;;;;;;5096136;28;19916;-31
2021/12/31 09:18:11;;;;;;;;;;;;;;;;;;5096495;28;20299;-32
2021/12/31 09:20:37;;;;;;;;;;;;;;;;;;5096257;28;19908;-28
2021/12/31 09:23:03;;;;;;;;;;;;;;;;;;5096229;28;19912;-29
2021/12/31 09:25:31;;;;;;;;;;;;;;;;;;5095023;28;19908;-33
2021/12/31 09:27:57;;;;;;;;;;;;;;;;;;5096199;28;19930;-27
2021/12/31 09:30:25;;;;;;;;;;;;;;;;;;5095037;28;19912;-33
2021/12/31 09:32:51;;;;;;;;;;;;;;;;;;5095942;28;20374;-27
2021/12/31 09:35:17;;;;;;;;;;;;;;;;;;5096289;28;19912;-30
2021/12/31 09:37:46;;;;;;;;;;;;;;;;;;5096118;28;19912;-32
2021/12/31 09:40:15;;;;;;;;;;;;;;;;;;5096005;28;19947;-30
2021/12/31 09:42:43;;;;;;;;;;;;;;;;;;5096099;28;19961;-31
2021/12/31 09:45:09;;;;;;;;;;;;;;;;;;5094922;28;19999;-31
2021/12/31 09:47:36;;;;;;;;;;;;;;;;;;5096046;28;19912;-30
2021/12/31 09:50:02;;;;;;;;;;;;;;;;;;5096020;28;19924;-31
2021/12/31 09:52:29;;;;;;;;;;;;;;;;;;5094932;28;19912;-31
2021/12/31 09:54:55;;;;;;;;;;;;;;;;;;5095802;28;19912;-31
2021/12/31 09:57:21;;;;;;;;;;;;;;;;;;5095382;28;19947;-30
2021/12/31 09:59:47;;;;;;;;;;;;;;;;;;5094382;28;20082;-30
2021/12/31 10:02:13;;;;;;;;;;;;;;;;;;5094255;28;19908;-29
2021/12/31 10:04:41;;;;;;;;;;;;;;;;;;5095329;28;20347;-31
2021/12/31 10:07:07;;;;;;;;;;;;;;;;;;5095490;28;19918;-30
2021/12/31 10:09:33;;;;;;;;;;;;;;;;;;5095335;28;19995;-26
2021/12/31 10:12:01;;;;;;;;;;;;;;;;;;5095485;28;19919;-33
2021/12/31 10:14:27;;;;;;;;;;;;;;;;;;5094191;28;19926;-33
2021/12/31 10:16:53;;;;;;;;;;;;;;;;;;5094858;28;20011;-39
2021/12/31 10:19:22;;;;;;;;;;;;;;;;;;5095407;28;20388;-30
2021/12/31 10:21:50;;;;;;;;;;;;;;;;;;5095109;28;20384;-34
2021/12/31 10:24:16;;;;;;;;;;;;;;;;;;5094982;28;19920;-27
2021/12/31 10:26:43;;;;;;;;;;;;;;;;;;5095258;28;20260;-31
2021/12/31 10:29:09;;;;;;;;;;;;;;;;;;5093945;28;20263;-27
2021/12/31 10:31:36;;;;;;;;;;;;;;;;;;5095202;28;20358;-30
2021/12/31 10:34:02;;;;;;;;;;;;;;;;;;5094742;28;19942;-31
2021/12/31 10:36:28;;;;;;;;;;;;;;;;;;5094771;28;19912;-26
2021/12/31 10:38:57;;;;;;;;;;;;;;;;;;5094837;28;19912;-28
2021/12/31 10:41:25;;;;;;;;;;;;;;;;;;5094742;28;20346;-32
2021/12/31 10:43:51;;;;;;;;;;;;;;;;;;5094819;28;19995;-33
2021/12/31 10:46:19;;;;;;;;;;;;;;;;;;5095055;28;20301;-29
2021/12/31 10:48:45;;;;;;;;;;;;;;;;;;5094783;28;19908;-27
2021/12/31 10:51:11;;;;;;;;;;;;;;;;;;5094893;28;20294;-27
2021/12/31 10:53:43;;;;;;;;;;;;;;;;;;5094921;28;20341;-30
2021/12/31 10:56:10;;;;;;;;;;;;;;;;;;5094758;28;19955;-29
2021/12/31 10:58:36;;;;;;;;;;;;;;;;;;5094606;28;19908;-27
2021/12/31 11:01:03;;;;;;;;;;;;;;;;;;5094837;28;19955;-34
2021/12/31 11:03:29;;;;;;;;;;;;;;;;;;5094732;28;19912;-29
2021/12/31 11:05:55;;;;;;;;;;;;;;;;;;5094836;28;19912;-26
2021/12/31 11:08:21;;;;;;;;;;;;;;;;;;5093931;28;19908;-26
2021/12/31 11:10:47;;;;;;;;;;;;;;;;;;5093891;28;19916;-27
2021/12/31 11:13:14;;;;;;;;;;;;;;;;;;5094607;28;19912;-29
2021/12/31 11:15:40;;;;;;;;;;;;;;;;;;5094442;28;19912;-27
2021/12/31 11:18:08;;;;;;;;;;;;;;;;;;5094860;28;19916;-30
2021/12/31 11:20:36;;;;;;;;;;;;;;;;;;5093595;28;19923;-27
2021/12/31 11:23:02;;;;;;;;;;;;;;;;;;5093323;28;19908;-29
2021/12/31 11:25:28;;;;;;;;;;;;;;;;;;5094597;28;19918;-29
2021/12/31 11:27:56;;;;;;;;;;;;;;;;;;5094553;28;19934;-32
2021/12/31 11:30:25;;;;;;;;;;;;;;;;;;5094759;28;19908;-31
2021/12/31 11:32:51;;;;;;;;;;;;;;;;;;5094518;28;20370;-30
2021/12/31 11:35:18;;;;;;;;;;;;;;;;;;5093620;28;19931;-31
2021/12/31 11:37:44;;;;;;;;;;;;;;;;;;5094274;28;19923;-30
2021/12/31 11:40:11;;;;;;;;;;;;;;;;;;5094491;28;19908;-27
2021/12/31 11:42:39;;;;;;;;;;;;;;;;;;5093271;28;19913;-27
2021/12/31 11:45:09;;;;;;;;;;;;;;;;;;5094458;28;19912;-28
2021/12/31 11:47:37;;;;;;;;;;;;;;;;;;5094632;28;20334;-30
2021/12/31 11:50:03;;;;;;;;;;;;;;;;;;5094464;28;19912;-27
2021/12/31 11:52:29;;;;;;;;;;;;;;;;;;5093431;28;20308;-29
2021/12/31 11:54:55;;;;;;;;;;;;;;;;;;5098447;28;20381;-28
2021/12/31 11:57:23;;;;;;;;;;;;;;;;;;5098279;28;19920;-33
2021/12/31 11:59:49;;;;;;;;;;;;;;;;;;5098720;28;19912;-28
2021/12/31 12:02:16;;;;;;;;;;;;;;;;;;5098046;28;19966;-29
2021/12/31 12:04:42;;;;;;;;;;;;;;;;;;5098042;28;19915;-27
2021/12/31 12:07:09;;;;;;;;;;;;;;;;;;5098060;28;19947;-32
2021/12/31 12:09:35;;;;;;;;;;;;;;;;;;5097867;28;19969;-27
2021/12/31 12:12:01;;;;;;;;;;;;;;;;;;5096409;28;19969;-30
2021/12/31 12:14:27;;;;;;;;;;;;;;;;;;5097294;28;19912;-31
2021/12/31 12:16:54;;;;;;;;;;;;;;;;;;5095944;28;20369;-31
2021/12/31 12:19:20;;;;;;;;;;;;;;;;;;5097544;28;19927;-30
2021/12/31 12:21:46;;;;;;;;;;;;;;;;;;5097220;28;20009;-30
2021/12/31 12:24:12;;;;;;;;;;;;;;;;;;5097455;28;19912;-35
2021/12/31 12:26:39;;;;;;;;;;;;;;;;;;5097288;28;19916;-29
2021/12/31 12:29:05;;;;;;;;;;;;;;;;;;5097444;28;19912;-30
2021/12/31 12:31:37;;;;;;;;;;;;;;;;;;5096296;28;19962;-27
2021/12/31 12:34:03;;;;;;;;;;;;;;;;;;5097231;28;20250;-29
2021/12/31 12:36:30;;;;;;;;;;;;;;;;;;5097314;28;19916;-29
2021/12/31 12:38:56;;;;;;;;;;;;;;;;;;5098045;28;19912;-29
2021/12/31 12:41:23;;;;;;;;;;;;;;;;;;5097628;28;20360;-30
2021/12/31 12:43:50;;;;;;;;;;;;;;;;;;5097457;28;19908;-27
2021/12/31 12:46:19;;;;;;;;;;;;;;;;;;5097657;28;20346;-26
2021/12/31 12:48:57;;;;;;;;;;;;;;;;;;5097573;28;20303;-25
2021/12/31 12:51:23;;;;;;;;;;;;;;;;;;5096126;28;20022;-28
2021/12/31 12:53:50;;;;;;;;;;;;;;;;;;5096092;28;19966;-25
2021/12/31 12:56:16;;;;;;;;;;;;;;;;;;5097156;28;19924;-26
2021/12/31 12:58:42;;;;;;;;;;;;;;;;;;5097365;28;19973;-30
2021/12/31 13:01:08;;;;;;;;;;;;;;;;;;5097145;28;19908;-30
2021/12/31 13:03:35;;;;;;;;;;;;;;;;;;5096950;28;19938;-31
2021/12/31 13:06:02;;;;;;;;;;;;;;;;;;5096501;28;19977;-28
2021/12/31 13:08:28;;;;;;;;;;;;;;;;;;5097417;28;19948;-27
2021/12/31 13:10:56;;;;;;;;;;;;;;;;;;5097110;28;20011;-31
2021/12/31 13:13:22;;;;;;;;;;;;;;;;;;5095946;28;20349;-28
2021/12/31 13:15:48;;;;;;;;;;;;;;;;;;5096876;28;20303;-32
2021/12/31 13:18:14;;;;;;;;;;;;;;;;;;5096933;28;19912;-28
2021/12/31 13:20:40;;;;;;;;;;;;;;;;;;5096726;28;19912;-32
2021/12/31 13:23:08;;;;;;;;;;;;;;;;;;5097088;28;19977;-29
2021/12/31 13:25:34;;;;;;;;;;;;;;;;;;5096749;28;19923;-28
2021/12/31 13:28:00;;;;;;;;;;;;;;;;;;5096667;28;19976;-30
2021/12/31 13:30:28;;;;;;;;;;;;;;;;;;5095642;28;19923;-27
2021/12/31 13:32:54;;;;;;;;;;;;;;;;;;5096661;28;20334;-32
2021/12/31 13:35:21;;;;;;;;;;;;;;;;;;5095420;28;20430;-31
2021/12/31 13:37:50;;;;;;;;;;;;;;;;;;5096589;28;20024;-25
2021/12/31 13:40:19;;;;;;;;;;;;;;;;;;5096516;28;19922;-27
2021/12/31 13:42:45;;;;;;;;;;;;;;;;;;5096604;28;20010;-26
2021/12/31 13:45:12;;;;;;;;;;;;;;;;;;5096408;28;20066;-27
2021/12/31 13:47:41;;;;;;;;;;;;;;;;;;5096613;28;19986;-30
2021/12/31 13:50:07;;;;;;;;;;;;;;;;;;5096406;28;19922;-31
2021/12/31 13:52:37;;;;;;;;;;;;;;;;;;5095985;28;19936;-31
2021/12/31 13:55:05;;;;;;;;;;;;;;;;;;5095201;28;20258;-29
2021/12/31 13:57:31;;;;;;;;;;;;;;;;;;5094974;28;19916;-27
2021/12/31 13:59:57;;;;;;;;;;;;;;;;;;5094854;28;19969;-32
2021/12/31 14:02:24;;;;;;;;;;;;;;;;;;5094771;28;20335;-29
2021/12/31 14:04:51;;;;;;;;;;;;;;;;;;5096228;28;20247;-31
2021/12/31 14:07:20;;;;;;;;;;;;;;;;;;5096011;28;19912;-29
2021/12/31 14:09:48;;;;;;;;;;;;;;;;;;5096385;28;19916;-28
2021/12/31 14:12:14;;;;;;;;;;;;;;;;;;5096006;28;19931;-29
2021/12/31 14:14:43;;;;;;;;;;;;;;;;;;5096036;28;19912;-32
2021/12/31 14:17:10;;;;;;;;;;;;;;;;;;5094532;28;19924;-30
2021/12/31 14:19:37;;;;;;;;;;;;;;;;;;5096226;28;19998;-28
2021/12/31 14:22:03;;;;;;;;;;;;;;;;;;5094850;28;19916;-25
2021/12/31 14:24:30;;;;;;;;;;;;;;;;;;5094865;28;19918;-31
2021/12/31 14:26:56;;;;;;;;;;;;;;;;;;5096068;28;19912;-28
2021/12/31 14:29:22;;;;;;;;;;;;;;;;;;5095755;28;19936;-27
2021/12/31 14:31:48;;;;;;;;;;;;;;;;;;5095855;28;19912;-27
2021/12/31 14:34:16;;;;;;;;;;;;;;;;;;5095918;28;20045;-31
2021/12/31 14:36:43;;;;;;;;;;;;;;;;;;5095530;28;19927;-30
2021/12/31 14:39:18;;;;;;;;;;;;;;;;;;5095861;28;19954;-30
2021/12/31 14:41:44;;;;;;;;;;;;;;;;;;5095526;28;19919;-27
2021/12/31 14:47:03;;;;;;;;;;;;;;;;;;5095632;28;20254;-31
2021/12/31 14:49:30;;;;;;;;;;;;;;;;;;5095690;28;20340;-29
2021/12/31 14:51:57;;;;;;;;;;;;;;;;;;5094382;28;20350;-31
2021/12/31 14:54:24;;;;;;;;;;;;;;;;;;5095274;28;19912;-27
2021/12/31 14:56:50;;;;;;;;;;;;;;;;;;5095576;28;20289;-25
2021/12/31 14:59:17;;;;;;;;;;;;;;;;;;5095294;28;19964;-28
2021/12/31 15:01:46;;;;;;;;;;;;;;;;;;5095502;28;19915;-27
2021/12/31 15:04:12;;;;;;;;;;;;;;;;;;5095509;28;19915;-27
2021/12/31 15:06:38;;;;;;;;;;;;;;;;;;5095116;28;19917;-25
2021/12/31 15:09:04;;;;;;;;;;;;;;;;;;5095227;28;20003;-31
2021/12/31 15:11:30;;;;;;;;;;;;;;;;;;5095093;28;19912;-30
2021/12/31 15:13:56;;;;;;;;;;;;;;;;;;5095037;28;19915;-25
2021/12/31 15:16:22;;;;;;;;;;;;;;;;;;5094734;28;19920;-30
2021/12/31 15:18:50;;;;;;;;;;;;;;;;;;5095062;28;19908;-28
2021/12/31 15:21:16;;;;;;;;;;;;;;;;;;5095011;28;19924;-27
2021/12/31 15:23:43;;;;;;;;;;;;;;;;;;5094973;28;19912;-29
2021/12/31 15:26:10;;;;;;;;;;;;;;;;;;5093953;28;20263;-30
2021/12/31 15:28:36;;;;;;;;;;;;;;;;;;5094966;28;19973;-30
2021/12/31 15:31:04;;;;;;;;;;;;;;;;;;5094989;28;20220;-30
2021/12/31 15:33:31;;;;;;;;;;;;;;;;;;5095130;28;19912;-30
2021/12/31 15:35:58;;;;;;;;;;;;;;;;;;5094796;28;19949;-30
2021/12/31 15:38:25;;;;;;;;;;;;;;;;;;5095145;28;19987;-30
2021/12/31 15:40:53;;;;;;;;;;;;;;;;;;5094809;28;20304;-28
2021/12/31 15:43:19;;;;;;;;;;;;;;;;;;5094764;28;20293;-32
2021/12/31 15:45:47;;;;;;;;;;;;;;;;;;5093798;28;19920;-24
2021/12/31 15:48:15;;;;;;;;;;;;;;;;;;5094843;28;20025;-32
2021/12/31 15:50:42;;;;;;;;;;;;;;;;;;5094744;28;19916;-33
2021/12/31 15:53:08;;;;;;;;;;;;;;;;;;5094929;28;19993;-34
2021/12/31 15:55:34;;;;;;;;;;;;;;;;;;5095023;28;20022;-27
2021/12/31 15:58:00;;;;;;;;;;;;;;;;;;5094608;28;19916;-29
2021/12/31 16:00:27;;;;;;;;;;;;;;;;;;5094868;28;19961;-29
2021/12/31 16:02:53;;;;;;;;;;;;;;;;;;5094510;28;19912;-27
2021/12/31 16:05:23;;;;;;;;;;;;;;;;;;5094628;28;20028;-32
2021/12/31 16:07:50;;;;;;;;;;;;;;;;;;5094631;28;19912;-27
2021/12/31 16:10:16;;;;;;;;;;;;;;;;;;5093576;28;19912;-32
2021/12/31 16:12:42;;;;;;;;;;;;;;;;;;5094539;28;20232;-32
2021/12/31 16:15:08;;;;;;;;;;;;;;;;;;5094834;28;19913;-28
2021/12/31 16:17:35;;;;;;;;;;;;;;;;;;5094127;28;19947;-30
2021/12/31 16:20:02;;;;;;;;;;;;;;;;;;5094508;28;19916;-30
2021/12/31 16:22:28;;;;;;;;;;;;;;;;;;5094544;28;20347;-29
2021/12/31 16:24:54;;;;;;;;;;;;;;;;;;5094419;28;19938;-27
2021/12/31 16:27:23;;;;;;;;;;;;;;;;;;5094648;28;19916;-26
2021/12/31 16:29:49;;;;;;;;;;;;;;;;;;5093399;28;19912;-28
2021/12/31 16:32:16;;;;;;;;;;;;;;;;;;5094544;28;20338;-32
2021/12/31 16:34:42;;;;;;;;;;;;;;;;;;5094564;28;19916;-29
2021/12/31 16:37:08;;;;;;;;;;;;;;;;;;5094260;28;19912;-29
2021/12/31 16:39:34;;;;;;;;;;;;;;;;;;5095202;28;20066;-31
2021/12/31 16:42:01;;;;;;;;;;;;;;;;;;5097819;28;19908;-27
2021/12/31 16:44:28;;;;;;;;;;;;;;;;;;5096908;28;19912;-28
2021/12/31 16:46:55;;;;;;;;;;;;;;;;;;5098018;28;20269;-32
2021/12/31 16:49:21;;;;;;;;;;;;;;;;;;5098133;28;19911;-30
2021/12/31 16:51:47;;;;;;;;;;;;;;;;;;5097884;28;19920;-32